createdAt,value
2018-12-25T00:01:08.711Z,2.17
2018-12-25T00:03:34.751Z,2.00
2018-12-25T00:06:00.753Z,2.37
2018-12-25T00:08:26.804Z,2.33
2018-12-25T00:10:52.825Z,2.23
2018-12-25T00:13:19.463Z,3.17
2018-12-25T00:15:45.470Z,2.83
2018-12-25T00:18:11.474Z,2.10
2018-12-25T00:20:37.506Z,2.60
2018-12-25T00:23:03.754Z,2.67
2018-12-25T00:25:29.784Z,2.20
2018-12-25T00:27:55.810Z,2.57
2018-12-25T00:30:21.815Z,2.73
2018-12-25T00:32:47.813Z,2.87
2018-12-25T00:35:13.978Z,2.67
2018-12-25T00:37:39.988Z,3.00
2018-12-25T00:40:06.242Z,4.93
2018-12-25T00:42:32.262Z,4.17
2018-12-25T00:44:58.292Z,4.43
2018-12-25T00:47:24.551Z,2.90
2018-12-25T00:49:50.806Z,2.27
2018-12-25T00:52:16.836Z,2.93
2018-12-25T00:54:42.844Z,3.00
2018-12-25T00:57:09.088Z,2.80
2018-12-25T00:59:35.095Z,2.90
2018-12-25T01:02:02.236Z,2.27
2018-12-25T01:04:28.574Z,3.33
2018-12-25T01:06:54.881Z,3.63
2018-12-25T01:09:20.934Z,3.07
2018-12-25T01:11:46.934Z,3.13
2018-12-25T01:14:13.214Z,3.27
2018-12-25T01:16:39.203Z,4.17
2018-12-25T01:19:05.459Z,3.43
2018-12-25T01:21:31.583Z,3.87
2018-12-25T01:23:57.607Z,3.80
2018-12-25T01:26:23.612Z,3.50
2018-12-25T01:28:49.828Z,3.37
2018-12-25T01:31:16.083Z,3.37
2018-12-25T01:33:42.082Z,3.07
2018-12-25T01:36:08.342Z,3.43
2018-12-25T01:38:34.351Z,3.37
2018-12-25T01:41:00.389Z,3.93
2018-12-25T01:43:26.396Z,3.53
2018-12-25T01:45:52.438Z,3.37
2018-12-25T01:48:18.679Z,3.27
2018-12-25T01:50:44.724Z,3.10
2018-12-25T01:53:10.730Z,2.93
2018-12-25T01:55:36.747Z,3.27
2018-12-25T01:58:02.775Z,2.67
2018-12-25T02:00:28.782Z,3.10
2018-12-25T02:02:55.050Z,3.50
2018-12-25T02:05:21.074Z,3.50
2018-12-25T02:07:47.316Z,3.17
2018-12-25T02:10:13.330Z,2.93
2018-12-25T02:12:39.333Z,3.70
2018-12-25T02:15:05.348Z,3.53
2018-12-25T02:17:31.370Z,3.17
2018-12-25T02:19:57.620Z,3.63
2018-12-25T02:22:23.667Z,3.03
2018-12-25T02:24:49.649Z,3.73
2018-12-25T02:27:15.680Z,3.27
2018-12-25T02:29:41.697Z,3.50
2018-12-25T02:32:07.981Z,2.93
2018-12-25T02:34:34.006Z,3.47
2018-12-25T02:37:00.012Z,3.53
2018-12-25T02:39:26.242Z,3.63
2018-12-25T02:41:52.263Z,2.80
2018-12-25T02:44:18.485Z,2.70
2018-12-25T02:46:44.484Z,3.20
2018-12-25T02:49:10.514Z,2.60
2018-12-25T02:51:37.030Z,2.80
2018-12-25T02:54:03.278Z,2.80
2018-12-25T02:56:29.523Z,3.03
2018-12-25T02:58:55.779Z,3.17
2018-12-25T03:01:21.782Z,2.97
2018-12-25T03:03:47.810Z,2.87
2018-12-25T03:06:13.841Z,3.00
2018-12-25T03:08:39.862Z,2.57
2018-12-25T03:11:05.851Z,3.10
2018-12-25T03:13:32.314Z,2.60
2018-12-25T03:15:58.315Z,2.23
2018-12-25T03:18:24.310Z,2.17
2018-12-25T03:20:50.320Z,2.57
2018-12-25T03:23:16.545Z,2.03
2018-12-25T03:25:42.790Z,2.13
2018-12-25T03:28:08.790Z,2.37
2018-12-25T03:30:34.795Z,2.10
2018-12-25T03:33:00.804Z,1.90
2018-12-25T03:35:26.830Z,1.77
2018-12-25T03:37:52.829Z,2.07
2018-12-25T03:40:19.071Z,2.10
2018-12-25T03:42:45.082Z,2.20
2018-12-25T03:45:11.327Z,2.30
2018-12-25T03:47:37.666Z,1.77
2018-12-25T03:50:10.819Z,2.37
2018-12-25T03:52:33.768Z,2.03
2018-12-25T03:54:59.775Z,2.23
2018-12-25T03:57:25.781Z,2.67
2018-12-25T03:59:51.942Z,2.00
2018-12-25T04:02:17.981Z,2.17
2018-12-25T04:04:44.265Z,2.10
2018-12-25T04:07:10.262Z,1.80
2018-12-25T04:09:36.275Z,2.10
2018-12-25T04:12:02.302Z,2.93
2018-12-25T04:14:28.301Z,2.70
2018-12-25T04:16:54.323Z,2.17
2018-12-25T04:19:20.370Z,1.97
2018-12-25T04:21:46.386Z,2.40
2018-12-25T04:24:12.408Z,2.30
2018-12-25T04:26:38.647Z,2.80
2018-12-25T04:29:04.678Z,2.43
2018-12-25T04:31:30.784Z,2.43
2018-12-25T04:33:56.780Z,2.33
2018-12-25T04:36:23.032Z,2.00
2018-12-25T04:38:49.024Z,1.30
2018-12-25T04:41:15.041Z,1.70
2018-12-25T04:43:41.071Z,1.60
2018-12-25T04:46:07.090Z,1.20
2018-12-25T04:48:33.312Z,1.80
2018-12-25T04:50:59.324Z,1.73
2018-12-25T04:53:25.585Z,1.83
2018-12-25T04:55:51.589Z,2.10
2018-12-25T04:58:17.591Z,1.73
2018-12-25T05:00:43.658Z,2.03
2018-12-25T05:03:09.869Z,1.67
2018-12-25T05:05:36.120Z,1.90
2018-12-25T05:08:02.123Z,1.77
2018-12-25T05:10:28.138Z,2.10
2018-12-25T05:12:54.141Z,2.03
2018-12-25T05:15:20.155Z,1.63
2018-12-25T05:17:46.171Z,1.40
2018-12-25T05:20:12.437Z,1.77
2018-12-25T05:22:38.434Z,1.63
2018-12-25T05:25:04.558Z,2.50
2018-12-25T05:27:30.546Z,1.67
2018-12-25T05:29:56.557Z,2.13
2018-12-25T05:32:22.777Z,1.70
2018-12-25T05:34:48.787Z,2.07
2018-12-25T05:37:14.793Z,2.43
2018-12-25T05:39:40.802Z,2.67
2018-12-25T05:42:06.850Z,2.60
2018-12-25T05:44:32.867Z,1.70
2018-12-25T05:46:58.882Z,1.80
2018-12-25T05:49:24.877Z,1.60
2018-12-25T05:51:51.117Z,2.80
2018-12-25T05:54:17.118Z,2.47
2018-12-25T05:56:43.142Z,2.80
2018-12-25T05:59:09.148Z,2.60
2018-12-25T06:01:35.163Z,2.67
2018-12-25T06:04:01.182Z,2.60
2018-12-25T06:06:27.218Z,2.40
2018-12-25T06:08:53.209Z,2.43
2018-12-25T06:11:19.328Z,2.70
2018-12-25T06:13:45.323Z,3.00
2018-12-25T06:16:11.316Z,3.03
2018-12-25T06:18:37.571Z,2.40
2018-12-25T06:21:03.562Z,2.60
2018-12-25T06:23:29.578Z,2.70
2018-12-25T06:25:55.576Z,2.63
2018-12-25T06:28:21.588Z,2.00
2018-12-25T06:30:47.602Z,2.00
2018-12-25T06:33:13.618Z,2.50
2018-12-25T06:35:39.629Z,2.57
2018-12-25T06:38:06.110Z,2.87
2018-12-25T06:40:32.336Z,2.70
2018-12-25T06:42:58.358Z,2.63
2018-12-25T06:45:24.370Z,2.30
2018-12-25T06:47:50.624Z,2.50
2018-12-25T06:50:16.651Z,2.80
2018-12-25T06:52:42.654Z,2.93
2018-12-25T06:55:08.924Z,2.23
2018-12-25T06:57:34.926Z,2.17
2018-12-25T07:00:00.951Z,2.80
2018-12-25T07:02:27.203Z,2.90
2018-12-25T07:04:53.204Z,2.63
2018-12-25T07:07:19.226Z,2.60
2018-12-25T07:09:45.234Z,2.53
2018-12-25T07:12:11.239Z,3.20
2018-12-25T07:14:37.248Z,3.00
2018-12-25T07:17:03.254Z,2.90
2018-12-25T07:19:29.266Z,2.53
2018-12-25T07:21:55.557Z,2.60
2018-12-25T07:24:21.796Z,3.10
2018-12-25T07:26:47.830Z,3.03
2018-12-25T07:29:13.824Z,2.47
2018-12-25T07:31:39.836Z,3.00
2018-12-25T07:34:05.850Z,2.50
2018-12-25T07:36:31.884Z,2.60
2018-12-25T07:38:57.906Z,2.47
2018-12-25T07:41:24.146Z,2.07
2018-12-25T07:43:50.404Z,2.70
2018-12-25T07:46:16.639Z,2.80
2018-12-25T07:48:42.657Z,2.60
2018-12-25T07:51:08.658Z,2.50
2018-12-25T07:53:35.132Z,2.70
2018-12-25T07:56:01.140Z,2.37
2018-12-25T07:58:27.368Z,3.37
2018-12-25T08:00:53.403Z,2.77
2018-12-25T08:03:19.496Z,2.57
2018-12-25T08:05:45.518Z,2.90
2018-12-25T08:08:11.539Z,2.60
2018-12-25T08:10:37.783Z,3.20
2018-12-25T08:13:03.786Z,2.77
2018-12-25T08:15:29.810Z,2.80
2018-12-25T08:17:55.808Z,2.53
2018-12-25T08:20:21.843Z,2.37
2018-12-25T08:22:47.837Z,2.20
2018-12-25T08:25:13.849Z,2.93
2018-12-25T08:27:39.857Z,2.73
2018-12-25T08:30:06.213Z,2.67
2018-12-25T08:32:32.435Z,3.10
2018-12-25T08:34:58.473Z,2.53
2018-12-25T08:37:24.470Z,2.47
2018-12-25T08:39:50.734Z,2.70
2018-12-25T08:42:16.732Z,2.20
2018-12-25T08:44:42.746Z,3.07
2018-12-25T08:47:08.970Z,2.47
2018-12-25T08:49:34.985Z,2.83
2018-12-25T08:52:01.001Z,2.97
2018-12-25T08:54:27.043Z,3.17
2018-12-25T08:56:53.262Z,2.50
2018-12-25T08:59:19.265Z,2.80
2018-12-25T09:01:45.497Z,2.40
2018-12-25T09:04:11.534Z,2.63
2018-12-25T09:06:37.529Z,2.80
2018-12-25T09:09:05.234Z,2.60
2018-12-25T09:11:31.545Z,3.33
2018-12-25T09:13:57.533Z,3.27
2018-12-25T09:16:23.786Z,3.00
2018-12-25T09:18:50.014Z,3.10
2018-12-25T09:21:16.039Z,3.47
2018-12-25T09:23:42.280Z,3.13
2018-12-25T09:26:08.290Z,3.50
2018-12-25T09:28:34.294Z,2.97
2018-12-25T09:31:00.306Z,3.20
2018-12-25T09:33:26.419Z,3.10
2018-12-25T09:35:52.422Z,3.20
2018-12-25T09:38:18.465Z,3.70
2018-12-25T09:40:44.448Z,4.07
2018-12-25T09:43:10.440Z,3.37
2018-12-25T09:45:36.492Z,3.30
2018-12-25T09:48:02.495Z,3.40
2018-12-25T09:50:28.505Z,3.80
2018-12-25T09:52:54.608Z,4.33
2018-12-25T09:55:20.614Z,3.63
2018-12-25T09:57:46.636Z,3.73
2018-12-25T10:00:12.853Z,3.53
2018-12-25T10:02:38.885Z,3.23
2018-12-25T10:05:04.898Z,3.27
2018-12-25T10:07:31.244Z,3.43
2018-12-25T10:09:57.491Z,3.70
2018-12-25T10:12:23.722Z,3.30
2018-12-25T10:14:49.983Z,3.80
2018-12-25T10:17:15.985Z,3.33
2018-12-25T10:19:41.991Z,2.97
2018-12-25T10:22:08.086Z,3.63
2018-12-25T10:24:34.084Z,3.23
2018-12-25T10:27:00.322Z,3.43
2018-12-25T10:29:26.572Z,3.97
2018-12-25T10:31:52.590Z,3.57
2018-12-25T10:34:18.602Z,3.60
2018-12-25T10:36:44.599Z,4.20
2018-12-25T10:39:10.918Z,3.73
2018-12-25T10:41:37.156Z,4.77
2018-12-25T10:44:03.186Z,4.23
2018-12-25T10:46:29.426Z,4.53
2018-12-25T10:48:55.430Z,3.60
2018-12-25T10:51:21.439Z,4.17
2018-12-25T10:53:47.462Z,4.90
2018-12-25T10:56:13.470Z,4.33
2018-12-25T10:58:39.481Z,4.40
2018-12-25T11:01:08.217Z,4.93
2018-12-25T11:03:34.220Z,4.60
2018-12-25T11:06:00.477Z,4.80
2018-12-25T11:08:26.718Z,4.67
2018-12-25T11:10:52.969Z,4.43
2018-12-25T11:13:18.965Z,4.60
2018-12-25T11:15:44.970Z,4.37
2018-12-25T11:18:10.985Z,4.23
2018-12-25T11:20:36.991Z,3.70
2018-12-25T11:23:03.211Z,3.80
2018-12-25T11:25:29.225Z,4.57
2018-12-25T11:27:55.451Z,4.30
2018-12-25T11:30:21.484Z,4.70
2018-12-25T11:32:47.732Z,4.87
2018-12-25T11:35:13.744Z,4.47
2018-12-25T11:37:39.756Z,4.30
2018-12-25T11:40:05.753Z,4.57
2018-12-25T11:42:32.001Z,4.93
2018-12-25T11:44:58.237Z,4.70
2018-12-25T11:47:24.261Z,5.00
2018-12-25T11:49:50.269Z,4.60
2018-12-25T11:52:16.415Z,4.87
2018-12-25T11:54:42.422Z,5.20
2018-12-25T11:57:08.430Z,5.17
2018-12-25T11:59:34.686Z,4.77
2018-12-25T12:02:00.913Z,5.73
2018-12-25T12:04:26.947Z,4.93
2018-12-25T12:06:52.956Z,5.80
2018-12-25T12:09:18.966Z,7.27
2018-12-25T12:11:45.212Z,6.83
2018-12-25T12:14:11.230Z,5.80
2018-12-25T12:16:37.238Z,5.20
2018-12-25T12:19:03.274Z,5.70
2018-12-25T12:21:29.271Z,5.23
2018-12-25T12:23:55.366Z,5.30
2018-12-25T12:26:21.417Z,5.17
2018-12-25T12:28:47.634Z,4.83
2018-12-25T12:31:13.656Z,5.23
2018-12-25T12:33:39.887Z,5.47
2018-12-25T12:36:05.904Z,5.10
2018-12-25T12:38:32.144Z,5.10
2018-12-25T12:40:58.492Z,6.50
2018-12-25T12:43:24.481Z,5.20
2018-12-25T12:45:50.818Z,5.03
2018-12-25T12:48:16.834Z,5.17
2018-12-25T12:50:42.828Z,4.80
2018-12-25T12:53:09.068Z,5.57
2018-12-25T12:55:35.067Z,5.60
2018-12-25T12:58:01.311Z,6.17
2018-12-25T13:00:27.545Z,5.57
2018-12-25T13:02:53.570Z,5.97
2018-12-25T13:05:19.792Z,5.50
2018-12-25T13:07:46.054Z,6.10
2018-12-25T13:10:12.056Z,6.00
2018-12-25T13:12:38.290Z,5.30
2018-12-25T13:15:04.998Z,5.87
2018-12-25T13:17:31.006Z,5.47
2018-12-25T13:19:57.019Z,5.77
2018-12-25T13:22:23.009Z,5.70
2018-12-25T13:24:49.026Z,5.23
2018-12-25T13:27:15.030Z,5.13
2018-12-25T13:29:41.038Z,6.30
2018-12-25T13:32:07.049Z,5.23
2018-12-25T13:34:33.046Z,5.33
2018-12-25T13:36:59.050Z,4.87
2018-12-25T13:39:25.057Z,5.27
2018-12-25T13:41:51.318Z,5.43
2018-12-25T13:44:17.318Z,5.73
2018-12-25T13:46:51.322Z,5.70
2018-12-25T13:49:11.479Z,5.60
2018-12-25T13:51:37.514Z,5.50
2018-12-25T13:54:03.500Z,5.80
2018-12-25T13:56:29.536Z,5.60
2018-12-25T13:58:56.578Z,4.80
2018-12-25T14:01:22.830Z,5.83
2018-12-25T14:03:49.068Z,5.93
2018-12-25T14:06:15.310Z,5.73
2018-12-25T14:08:41.328Z,6.33
2018-12-25T14:11:07.334Z,6.20
2018-12-25T14:13:33.382Z,6.00
2018-12-25T14:15:59.453Z,5.60
2018-12-25T14:18:25.477Z,5.67
2018-12-25T14:20:51.511Z,6.13
2018-12-25T14:23:17.764Z,5.67
2018-12-25T14:25:43.783Z,6.00
2018-12-25T14:28:09.785Z,5.87
2018-12-25T14:30:36.061Z,6.43
2018-12-25T14:33:02.297Z,6.40
2018-12-25T14:35:28.335Z,6.10
2018-12-25T14:37:54.571Z,6.03
2018-12-25T14:40:20.814Z,6.10
2018-12-25T14:42:46.825Z,6.23
2018-12-25T14:45:12.838Z,6.07
2018-12-25T14:47:39.060Z,6.67
2018-12-25T14:50:07.218Z,5.57
2018-12-25T14:52:33.234Z,6.47
2018-12-25T14:54:59.226Z,7.00
2018-12-25T14:57:25.490Z,5.90
2018-12-25T14:59:51.499Z,6.40
2018-12-25T15:02:17.540Z,6.47
2018-12-25T15:04:43.568Z,8.83
2018-12-25T15:07:09.571Z,8.97
2018-12-25T15:09:35.593Z,9.03
2018-12-25T15:12:01.578Z,11.80
2018-12-25T15:14:27.599Z,9.63
2018-12-25T15:16:53.595Z,8.67
2018-12-25T15:19:19.834Z,8.57
2018-12-25T15:21:46.066Z,8.47
2018-12-25T15:24:12.316Z,7.03
2018-12-25T15:26:38.316Z,6.07
2018-12-25T15:29:04.532Z,5.93
2018-12-25T15:31:30.540Z,6.57
2018-12-25T15:33:56.551Z,6.33
2018-12-25T15:36:22.579Z,6.27
2018-12-25T15:38:48.561Z,6.27
2018-12-25T15:41:14.572Z,8.90
2018-12-25T15:43:40.576Z,9.37
2018-12-25T15:46:06.586Z,8.13
2018-12-25T15:48:32.590Z,9.27
2018-12-25T15:50:58.594Z,7.13
2018-12-25T15:53:24.821Z,6.27
2018-12-25T15:55:51.036Z,6.23
2018-12-25T15:58:17.677Z,6.17
2018-12-25T16:00:43.916Z,6.47
2018-12-25T16:03:09.941Z,5.70
2018-12-25T16:05:36.170Z,6.03
2018-12-25T16:08:02.184Z,5.90
2018-12-25T16:10:28.181Z,5.33
2018-12-25T16:12:54.223Z,5.80
2018-12-25T16:15:20.230Z,5.77
2018-12-25T16:17:46.250Z,6.30
2018-12-25T16:20:12.488Z,5.97
2018-12-25T16:22:38.506Z,8.03
2018-12-25T16:25:04.726Z,6.73
2018-12-25T16:27:30.762Z,6.40
2018-12-25T16:29:56.762Z,6.43
2018-12-25T16:32:22.778Z,7.33
2018-12-25T16:34:48.998Z,6.87
2018-12-25T16:37:15.030Z,7.47
2018-12-25T16:39:41.261Z,7.27
2018-12-25T16:42:07.262Z,7.63
2018-12-25T16:44:33.276Z,7.70
2018-12-25T16:46:59.279Z,6.97
2018-12-25T16:49:25.578Z,7.27
2018-12-25T16:51:51.648Z,6.50
2018-12-25T16:54:17.902Z,5.37
2018-12-25T16:56:43.902Z,5.83
2018-12-25T16:59:09.926Z,6.87
2018-12-25T17:01:35.927Z,6.60
2018-12-25T17:04:01.958Z,7.47
2018-12-25T17:06:28.177Z,7.00
2018-12-25T17:08:54.169Z,7.60
2018-12-25T17:11:20.396Z,7.50
2018-12-25T17:13:46.425Z,6.50
2018-12-25T17:16:12.441Z,6.73
2018-12-25T17:18:38.446Z,6.73
2018-12-25T17:21:04.685Z,7.70
2018-12-25T17:23:30.937Z,7.57
2018-12-25T17:25:56.940Z,6.97
2018-12-25T17:28:27.808Z,6.93
2018-12-25T17:30:51.102Z,7.03
2018-12-25T17:33:17.101Z,19.73
2018-12-25T17:35:43.369Z,8.73
2018-12-25T17:38:09.617Z,7.27
2018-12-25T17:40:35.634Z,8.10
2018-12-25T17:43:01.662Z,7.90
2018-12-25T17:45:27.900Z,5.83
2018-12-25T17:47:53.919Z,6.43
2018-12-25T17:50:20.024Z,6.00
2018-12-25T17:52:46.038Z,6.37
2018-12-25T17:55:12.365Z,6.10
2018-12-25T17:57:38.592Z,6.63
2018-12-25T18:00:05.700Z,6.00
2018-12-25T18:02:31.726Z,7.33
2018-12-25T18:04:57.717Z,6.90
2018-12-25T18:07:23.739Z,6.67
2018-12-25T18:09:49.748Z,6.80
2018-12-25T18:12:15.759Z,5.67
2018-12-25T18:14:41.781Z,6.30
2018-12-25T18:17:07.793Z,6.63
2018-12-25T18:19:34.049Z,6.70
2018-12-25T18:22:00.262Z,6.33
2018-12-25T18:24:26.374Z,6.90
2018-12-25T18:26:52.378Z,7.10
2018-12-25T18:29:18.370Z,7.13
2018-12-25T18:31:44.386Z,7.57
2018-12-25T18:34:10.389Z,6.03
2018-12-25T18:36:36.641Z,6.43
2018-12-25T18:39:04.554Z,6.67
2018-12-25T18:41:30.559Z,6.70
2018-12-25T18:43:56.792Z,5.80
2018-12-25T18:46:22.814Z,6.17
2018-12-25T18:48:49.041Z,6.07
2018-12-25T18:51:15.272Z,5.43
2018-12-25T18:53:41.492Z,6.87
2018-12-25T18:56:07.485Z,5.77
2018-12-25T18:58:33.493Z,6.33
2018-12-25T19:00:59.724Z,5.83
2018-12-25T19:03:25.738Z,5.30
2018-12-25T19:05:51.752Z,5.17
2018-12-25T19:08:17.756Z,5.70
2018-12-25T19:10:43.760Z,6.20
2018-12-25T19:13:09.762Z,4.83
2018-12-25T19:15:35.777Z,5.47
2018-12-25T19:18:01.997Z,5.50
2018-12-25T19:20:28.245Z,5.27
2018-12-25T19:22:54.453Z,6.07
2018-12-25T19:25:20.495Z,5.50
2018-12-25T19:27:46.505Z,6.27
2018-12-25T19:30:16.013Z,5.77
2018-12-25T19:32:43.809Z,6.20
2018-12-25T19:35:09.930Z,5.30
2018-12-25T19:37:35.933Z,5.13
2018-12-25T19:40:03.972Z,5.53
2018-12-25T19:42:29.976Z,5.70
2018-12-25T19:44:55.989Z,6.20
2018-12-25T19:47:22.014Z,8.07
2018-12-25T19:49:48.239Z,8.03
2018-12-25T19:52:14.236Z,7.13
2018-12-25T19:54:44.578Z,7.33
2018-12-25T19:57:09.893Z,6.40
2018-12-25T19:59:36.302Z,6.97
2018-12-25T20:02:02.292Z,6.27
2018-12-25T20:04:32.099Z,7.03
2018-12-25T20:07:32.980Z,7.33
2018-12-25T20:10:23.734Z,7.20
2018-12-25T20:12:59.287Z,8.53
2018-12-25T20:15:29.351Z,7.73
2018-12-25T20:18:01.941Z,7.50
2018-12-25T20:20:46.875Z,7.67
2018-12-25T20:23:33.542Z,7.40
2018-12-25T20:26:15.184Z,7.70
2018-12-25T20:29:10.508Z,6.87
2018-12-25T20:32:04.826Z,5.53
2018-12-25T20:34:53.441Z,6.97
2018-12-25T20:37:45.757Z,6.20
2018-12-25T20:40:43.039Z,6.77
2018-12-25T20:43:12.865Z,5.93
2018-12-25T20:45:54.542Z,5.57
2018-12-25T20:48:24.353Z,6.53
2018-12-25T20:51:27.443Z,5.67
2018-12-25T20:54:12.600Z,5.47
2018-12-25T20:57:17.557Z,4.93
2018-12-25T20:59:53.245Z,5.13
2018-12-25T21:02:34.936Z,5.20
2018-12-25T21:05:13.137Z,5.30
2018-12-25T21:07:55.261Z,6.17
2018-12-25T21:10:58.572Z,6.47
2018-12-25T21:13:47.768Z,5.63
2018-12-25T21:16:33.989Z,4.63
2018-12-25T21:19:06.551Z,5.37
2018-12-25T21:21:51.454Z,5.00
2018-12-25T21:24:54.702Z,6.10
2018-12-25T21:27:30.226Z,4.53
2018-12-25T21:29:58.275Z,4.63
2018-12-25T21:32:24.799Z,5.27
2018-12-25T21:34:54.615Z,4.93
2018-12-25T21:37:20.619Z,4.50
2018-12-25T21:39:46.905Z,5.50
2018-12-25T21:42:13.908Z,5.00
2018-12-25T21:44:40.053Z,5.10
2018-12-25T21:47:06.068Z,4.60
2018-12-25T21:49:32.099Z,5.43
2018-12-25T21:51:58.521Z,4.97
2018-12-25T21:54:24.789Z,5.00
2018-12-25T21:56:50.942Z,4.40
2018-12-25T21:59:18.175Z,5.13
2018-12-25T22:01:44.286Z,5.97
2018-12-25T22:04:10.406Z,4.47
2018-12-25T22:06:36.475Z,5.30
2018-12-25T22:09:04.851Z,4.93
2018-12-25T22:11:30.859Z,5.27
2018-12-25T22:13:56.895Z,5.10
2018-12-25T22:16:23.037Z,5.33
2018-12-25T22:18:49.123Z,6.23
2018-12-25T22:21:15.151Z,5.63
2018-12-25T22:23:41.369Z,5.50
2018-12-25T22:26:07.627Z,6.00
2018-12-25T22:28:33.789Z,7.60
2018-12-25T22:30:59.863Z,7.27
2018-12-25T22:33:26.113Z,8.47
2018-12-25T22:35:52.136Z,6.50
2018-12-25T22:38:18.138Z,6.53
2018-12-25T22:40:44.173Z,6.03
2018-12-25T22:43:10.181Z,6.20
2018-12-25T22:45:36.428Z,5.37
2018-12-25T22:48:02.443Z,5.07
2018-12-25T22:50:28.544Z,5.60
2018-12-25T22:52:54.796Z,4.87
2018-12-25T22:55:20.811Z,5.17
2018-12-25T22:57:46.841Z,5.63
2018-12-25T23:00:12.847Z,6.20
2018-12-25T23:02:39.094Z,6.20
2018-12-25T23:05:05.344Z,7.37
2018-12-25T23:07:31.356Z,7.50
2018-12-25T23:09:57.344Z,7.00
2018-12-25T23:12:23.589Z,7.67
2018-12-25T23:14:49.833Z,8.57
2018-12-25T23:17:15.853Z,7.80
2018-12-25T23:19:41.875Z,8.17
2018-12-25T23:22:07.882Z,6.83
2018-12-25T23:24:34.225Z,6.53
2018-12-25T23:27:00.259Z,5.57
2018-12-25T23:29:26.264Z,5.20
2018-12-25T23:31:52.285Z,5.20
2018-12-25T23:34:18.313Z,5.53
2018-12-25T23:36:44.549Z,4.70
2018-12-25T23:39:10.583Z,4.60
2018-12-25T23:41:36.587Z,5.13
2018-12-25T23:44:02.607Z,5.87
2018-12-25T23:46:28.602Z,5.27
2018-12-25T23:48:54.834Z,5.13
2018-12-25T23:51:20.835Z,4.97
2018-12-25T23:53:46.855Z,4.63
2018-12-25T23:56:12.860Z,5.23
2018-12-25T23:58:39.122Z,4.60
